McNair Village, Texas
Current Conditions -  °F | °C
As of 9:56 AM on Saturday 25 Oct 2014 (Local Time) from KHLR Reporting Station
Clear Clear  
Wind Chill: 74°   Ceiling: Unl
Heat Index: 74°   Visibility: 10mi
Dew Point: 60°   Wind: 5mph
Humidity: 62%   Direction: 150°SSE
Pressure: 30.18"   Gusts: NA
Location:  31.2151°N, 97.7405°W
Report Text: KHLR 251456Z AUTO 15004KT 10SM CLR 23/16 A3018 RMK AO2 SLP244 T02330156 51015 PWINO $
Loading
Personal Weather Stations






























Interactive Weather Map
Tropical Storm Tracking
New forecast layout! Learn more

10-Day Weather Forecast

Advertisements
Track Severe Weather on mobile